createdAt,value
2019-04-30T00:01:41.673Z,99009.11
2019-04-30T00:04:16.455Z,99004.09
2019-04-30T00:06:47.290Z,99006.34
2019-04-30T00:09:19.912Z,99011.74
2019-04-30T00:11:57.780Z,99008.10
2019-04-30T00:14:25.335Z,99010.22
2019-04-30T00:16:55.733Z,98996.31
2019-04-30T00:19:26.669Z,99002.43
2019-04-30T00:22:00.420Z,98997.61
2019-04-30T00:24:30.064Z,99002.30
2019-04-30T00:27:01.013Z,99006.03
2019-04-30T00:29:31.953Z,99011.51
2019-04-30T00:32:04.426Z,99005.59
2019-04-30T00:34:39.285Z,99006.81
2019-04-30T00:37:13.868Z,99008.42
2019-04-30T00:39:44.443Z,99000.74
2019-04-30T00:42:18.720Z,98998.55
2019-04-30T00:44:45.689Z,98999.53
2019-04-30T00:47:16.605Z,98997.06
2019-04-30T00:49:47.486Z,99000.94
2019-04-30T00:52:18.233Z,99003.44
2019-04-30T00:54:49.203Z,99001.17
2019-04-30T00:57:20.158Z,99002.06
2019-04-30T00:59:50.994Z,99001.98
2019-04-30T01:02:35.838Z,99002.61
2019-04-30T01:05:12.653Z,99000.77
2019-04-30T01:07:48.721Z,99001.90
2019-04-30T01:10:19.571Z,99002.37
2019-04-30T01:12:50.272Z,99002.68
2019-04-30T01:15:21.321Z,98997.98
2019-04-30T01:17:53.740Z,98995.46
2019-04-30T01:20:29.087Z,98997.91
2019-04-30T01:23:03.126Z,98993.09
2019-04-30T01:25:32.049Z,98996.99
2019-04-30T01:28:03.231Z,98998.03
2019-04-30T01:30:34.411Z,98991.72
2019-04-30T01:33:05.149Z,98989.90
2019-04-30T01:35:35.976Z,98988.36
2019-04-30T01:38:11.059Z,98992.84
2019-04-30T01:40:47.312Z,98989.53
2019-04-30T01:43:15.334Z,99006.78
2019-04-30T01:45:46.243Z,98999.14
2019-04-30T01:48:17.010Z,98994.77
2019-04-30T01:50:48.857Z,98995.84
2019-04-30T01:53:19.773Z,98991.77
2019-04-30T01:56:09.168Z,98992.38
2019-04-30T01:58:49.585Z,98985.25
2019-04-30T02:01:22.584Z,98989.77
2019-04-30T02:03:53.455Z,98987.91
2019-04-30T02:06:24.344Z,98990.70
2019-04-30T02:08:55.343Z,98993.97
2019-04-30T02:11:26.323Z,98991.66
2019-04-30T02:13:58.976Z,98988.61
2019-04-30T02:16:29.612Z,98991.66
2019-04-30T02:19:00.566Z,98997.75
2019-04-30T02:21:33.355Z,98997.53
2019-04-30T02:24:03.862Z,98999.81
2019-04-30T02:26:34.623Z,98993.28
2019-04-30T02:29:05.529Z,98994.05
2019-04-30T02:31:36.338Z,98992.45
2019-04-30T02:34:21.721Z,98999.41
2019-04-30T02:36:59.779Z,98998.42
2019-04-30T02:39:30.578Z,99004.98
2019-04-30T02:42:02.161Z,99002.09
2019-04-30T02:44:34.469Z,99000.13
2019-04-30T02:47:05.179Z,99003.69
2019-04-30T02:49:36.322Z,98998.45
2019-04-30T02:52:09.288Z,98998.03
2019-04-30T02:54:42.306Z,99004.29
2019-04-30T02:57:14.102Z,98998.75
2019-04-30T03:00:04.054Z,99000.45
2019-04-30T03:02:35.042Z,99001.31
2019-04-30T03:05:12.720Z,99009.97
2019-04-30T03:07:40.731Z,99004.13
2019-04-30T03:10:11.893Z,99003.34
2019-04-30T03:12:42.900Z,99001.28
2019-04-30T03:15:14.428Z,98999.27
2019-04-30T03:18:00.634Z,99003.25
2019-04-30T03:20:43.938Z,99002.80
2019-04-30T03:23:14.939Z,99004.06
2019-04-30T03:25:45.663Z,99009.32
2019-04-30T03:28:16.575Z,99009.03
2019-04-30T03:30:56.224Z,99011.97
2019-04-30T03:33:22.849Z,99012.35
2019-04-30T03:35:54.249Z,99012.75
2019-04-30T03:38:24.862Z,99007.72
2019-04-30T03:40:55.657Z,99009.39
2019-04-30T03:43:26.426Z,99011.58
2019-04-30T03:45:59.380Z,99017.12
2019-04-30T03:48:30.051Z,99016.82
2019-04-30T03:51:01.233Z,99016.55
2019-04-30T03:53:32.242Z,99011.47
2019-04-30T03:56:03.069Z,99021.90
2019-04-30T03:58:33.824Z,99024.36
2019-04-30T04:01:11.849Z,99014.06
2019-04-30T04:04:01.443Z,99016.75
2019-04-30T04:06:39.555Z,99021.97
2019-04-30T04:09:21.989Z,99013.44
2019-04-30T04:11:51.050Z,99022.16
2019-04-30T04:14:21.897Z,99018.98
2019-04-30T04:16:52.718Z,99029.78
2019-04-30T04:19:23.602Z,99026.69
2019-04-30T04:21:54.299Z,99033.44
2019-04-30T04:24:25.055Z,99025.31
2019-04-30T04:26:55.683Z,99032.44
2019-04-30T04:29:29.638Z,99038.58
2019-04-30T04:32:00.847Z,99042.52
2019-04-30T04:34:31.535Z,99050.52
2019-04-30T04:37:02.471Z,99054.45
2019-04-30T04:39:33.309Z,99058.85
2019-04-30T04:42:04.529Z,99057.17
2019-04-30T04:44:35.358Z,99053.09
2019-04-30T04:47:06.380Z,99059.89
2019-04-30T04:49:39.706Z,99070.98
2019-04-30T04:52:10.310Z,99079.85
2019-04-30T04:54:41.533Z,99085.19
2019-04-30T04:57:17.901Z,99090.02
2019-04-30T04:59:45.052Z,99098.98
2019-04-30T05:02:34.736Z,99091.44
2019-04-30T05:05:06.149Z,99098.01
2019-04-30T05:07:36.947Z,99101.71
2019-04-30T05:10:09.224Z,99095.70
2019-04-30T05:12:40.243Z,99098.91
2019-04-30T05:15:11.979Z,99090.12
2019-04-30T05:17:45.784Z,99085.71
2019-04-30T05:20:16.817Z,99084.30
2019-04-30T05:22:48.889Z,99088.77
2019-04-30T05:25:19.998Z,99090.12
2019-04-30T05:27:50.782Z,99097.34
2019-04-30T05:30:21.782Z,99100.55
2019-04-30T05:32:53.047Z,99102.94
2019-04-30T05:35:23.943Z,99098.81
2019-04-30T05:37:54.741Z,99098.44
2019-04-30T05:40:25.784Z,99093.64
2019-04-30T05:42:56.704Z,99093.19
2019-04-30T05:45:29.059Z,99087.02
2019-04-30T05:47:59.957Z,99106.48
2019-04-30T05:50:30.885Z,99094.05
2019-04-30T05:53:01.852Z,99091.17
2019-04-30T05:55:32.763Z,99096.77
2019-04-30T05:58:03.752Z,99100.40
2019-04-30T06:00:34.828Z,99098.21
2019-04-30T06:03:05.661Z,99109.78
2019-04-30T06:05:36.416Z,99125.52
2019-04-30T06:08:09.153Z,99125.70
2019-04-30T06:10:46.033Z,99113.65
2019-04-30T06:13:31.996Z,99105.18
2019-04-30T06:16:11.853Z,99107.91
2019-04-30T06:18:42.667Z,99107.38
2019-04-30T06:21:14.192Z,99106.59
2019-04-30T06:23:45.014Z,99116.15
2019-04-30T06:26:16.484Z,99111.67
2019-04-30T06:28:49.581Z,99111.06
2019-04-30T06:31:31.913Z,99120.27
2019-04-30T06:33:52.674Z,99123.38
2019-04-30T06:36:23.793Z,99131.75
2019-04-30T06:38:54.672Z,99133.19
2019-04-30T06:41:25.721Z,99134.66
2019-04-30T06:43:58.659Z,99134.18
2019-04-30T06:46:29.719Z,99136.45
2019-04-30T06:49:00.923Z,99139.34
2019-04-30T06:51:34.438Z,99144.17
2019-04-30T06:54:05.503Z,99141.40
2019-04-30T06:56:36.293Z,99142.16
2019-04-30T06:59:09.155Z,99130.56
2019-04-30T07:01:39.731Z,99133.66
2019-04-30T07:04:10.641Z,99128.46
2019-04-30T07:06:45.141Z,99127.81
2019-04-30T07:09:39.839Z,99128.70
2019-04-30T07:12:25.474Z,99135.36
2019-04-30T07:14:50.880Z,99132.50
2019-04-30T07:17:21.716Z,99135.38
2019-04-30T07:19:56.873Z,99144.79
2019-04-30T07:22:37.562Z,99152.16
2019-04-30T07:24:59.718Z,99152.80
2019-04-30T07:27:32.257Z,99157.14
2019-04-30T07:30:03.289Z,99159.61
2019-04-30T07:32:33.895Z,99168.91
2019-04-30T07:35:05.264Z,99162.36
2019-04-30T07:37:36.091Z,99157.86
2019-04-30T07:40:09.144Z,99164.66
2019-04-30T07:42:44.854Z,99165.25
2019-04-30T07:45:12.638Z,99162.48
2019-04-30T07:47:43.488Z,99166.89
2019-04-30T07:50:15.101Z,99167.55
2019-04-30T07:53:01.088Z,99162.05
2019-04-30T07:55:19.754Z,99166.56
2019-04-30T07:57:50.880Z,99160.33
2019-04-30T08:00:21.662Z,99159.32
2019-04-30T08:03:05.489Z,99160.16
2019-04-30T08:05:40.987Z,99165.19
2019-04-30T08:08:21.128Z,99167.48
2019-04-30T08:10:44.184Z,99167.72
2019-04-30T08:13:15.998Z,99167.52
2019-04-30T08:15:49.437Z,99165.03
2019-04-30T08:18:19.807Z,99163.39
2019-04-30T08:20:50.603Z,99164.08
2019-04-30T08:23:34.147Z,99170.70
2019-04-30T08:25:53.907Z,99164.58
2019-04-30T08:28:24.431Z,99174.23
2019-04-30T08:30:55.253Z,99179.03
2019-04-30T08:33:25.984Z,99181.52
2019-04-30T08:35:56.641Z,99189.28
2019-04-30T08:38:27.488Z,99181.41
2019-04-30T08:41:00.772Z,99190.38
2019-04-30T08:43:30.555Z,99186.30
2019-04-30T08:46:01.296Z,99181.54
2019-04-30T08:48:45.363Z,99168.73
2019-04-30T08:51:05.752Z,99179.46
2019-04-30T08:53:38.618Z,99174.39
2019-04-30T08:56:10.086Z,99190.14
2019-04-30T08:58:41.159Z,99181.44
2019-04-30T09:01:11.690Z,99190.63
2019-04-30T09:03:42.213Z,99176.87
2019-04-30T09:06:21.189Z,99186.52
2019-04-30T09:08:55.059Z,99185.37
2019-04-30T09:11:53.002Z,99187.95
2019-04-30T09:14:18.708Z,99184.42
2019-04-30T09:16:51.295Z,99176.83
2019-04-30T09:19:22.025Z,99167.98
2019-04-30T09:21:52.849Z,99170.58
2019-04-30T09:24:23.514Z,99174.64
2019-04-30T09:26:54.271Z,99174.16
2019-04-30T09:29:24.945Z,99194.82
2019-04-30T09:31:55.521Z,99195.23
2019-04-30T09:34:26.336Z,99190.89
2019-04-30T09:36:58.900Z,99182.08
2019-04-30T09:39:29.871Z,99178.09
2019-04-30T09:42:00.483Z,99174.20
2019-04-30T09:44:31.283Z,99177.13
2019-04-30T09:47:02.114Z,99168.53
2019-04-30T09:49:32.873Z,99164.80
2019-04-30T09:52:03.574Z,99164.29
2019-04-30T09:54:34.677Z,99166.11
2019-04-30T09:57:05.310Z,99177.72
2019-04-30T09:59:36.092Z,99180.19
2019-04-30T10:02:09.214Z,99181.34
2019-04-30T10:04:40.202Z,99178.18
2019-04-30T10:07:11.284Z,99174.97
2019-04-30T10:09:42.066Z,99166.27
2019-04-30T10:12:14.972Z,99168.99
2019-04-30T10:14:45.770Z,99170.46
2019-04-30T10:17:35.343Z,99172.88
2019-04-30T10:20:09.170Z,99175.42
2019-04-30T10:22:40.168Z,99168.56
2019-04-30T10:25:11.952Z,99167.23
2019-04-30T10:27:43.155Z,99165.87
2019-04-30T10:30:14.707Z,99155.67
2019-04-30T10:32:45.613Z,99157.86
2019-04-30T10:35:18.372Z,99151.21
2019-04-30T10:37:48.890Z,99152.41
2019-04-30T10:40:20.346Z,99149.97
2019-04-30T10:42:51.259Z,99145.99
2019-04-30T10:45:22.295Z,99138.71
2019-04-30T10:47:53.393Z,99144.14
2019-04-30T10:50:26.335Z,99146.12
2019-04-30T10:52:59.015Z,99145.80
2019-04-30T10:55:31.163Z,99139.94
2019-04-30T10:58:02.103Z,99144.65
2019-04-30T11:00:41.929Z,99136.16
2019-04-30T11:03:19.856Z,99140.12
2019-04-30T11:05:45.271Z,99135.08
2019-04-30T11:08:16.231Z,99142.51
2019-04-30T11:10:46.907Z,99145.73
2019-04-30T11:13:17.723Z,99139.66
2019-04-30T11:15:49.224Z,99143.17
2019-04-30T11:18:20.178Z,99140.04
2019-04-30T11:20:51.522Z,99137.10
2019-04-30T11:23:22.417Z,99136.18
2019-04-30T11:25:53.716Z,99135.27
2019-04-30T11:28:25.669Z,99137.76
2019-04-30T11:31:17.139Z,99132.37
2019-04-30T11:33:48.348Z,99130.56
2019-04-30T11:36:19.407Z,99133.06
2019-04-30T11:38:50.168Z,99123.94
2019-04-30T11:41:30.202Z,99128.33
2019-04-30T11:43:53.170Z,99128.25
2019-04-30T11:47:10.363Z,99128.45
2019-04-30T11:49:41.188Z,99123.09
2019-04-30T11:52:11.856Z,99118.16
2019-04-30T11:54:49.197Z,99116.70
2019-04-30T11:57:15.512Z,99118.97
2019-04-30T11:59:46.349Z,99122.63
2019-04-30T12:02:22.623Z,99121.53
2019-04-30T12:04:53.479Z,99126.91
2019-04-30T12:07:45.375Z,99117.55
2019-04-30T12:10:35.512Z,99116.05
2019-04-30T12:13:09.645Z,99120.30
2019-04-30T12:15:40.355Z,99113.03
2019-04-30T12:18:11.238Z,99109.70
2019-04-30T12:20:42.024Z,99113.23
2019-04-30T12:23:12.733Z,99105.95
2019-04-30T12:25:43.512Z,99099.48
2019-04-30T12:28:19.412Z,99102.88
2019-04-30T12:30:50.105Z,99103.36
2019-04-30T12:33:21.203Z,99092.77
2019-04-30T12:35:52.188Z,99100.91
2019-04-30T12:38:23.017Z,99087.88
2019-04-30T12:40:53.828Z,99092.80
2019-04-30T12:43:24.794Z,99093.67
2019-04-30T12:46:02.810Z,99093.80
2019-04-30T12:48:39.496Z,99090.55
2019-04-30T12:51:28.924Z,99083.56
2019-04-30T12:54:18.630Z,99087.50
2019-04-30T12:57:05.385Z,99078.14
2019-04-30T12:59:36.296Z,99076.95
2019-04-30T13:02:09.023Z,99086.12
2019-04-30T13:04:39.996Z,99083.38
2019-04-30T13:07:11.802Z,99083.66
2019-04-30T13:09:43.501Z,99079.73
2019-04-30T13:12:15.615Z,99074.14
2019-04-30T13:14:52.332Z,99072.10
2019-04-30T13:17:20.469Z,99074.73
2019-04-30T13:19:51.306Z,99067.06
2019-04-30T13:22:22.356Z,99070.28
2019-04-30T13:24:53.385Z,99065.83
2019-04-30T13:27:24.288Z,99049.36
2019-04-30T13:30:01.693Z,99051.16
2019-04-30T13:32:36.507Z,99060.02
2019-04-30T13:35:09.241Z,99052.80
2019-04-30T13:37:46.446Z,99051.62
2019-04-30T13:40:36.283Z,99050.30
2019-04-30T13:43:07.989Z,99044.78
2019-04-30T13:45:38.885Z,99050.81
2019-04-30T13:48:09.964Z,99044.92
2019-04-30T13:50:40.890Z,99049.18
2019-04-30T13:53:11.755Z,99038.26
2019-04-30T13:55:45.784Z,99042.38
2019-04-30T13:58:15.103Z,99039.57
2019-04-30T14:00:46.142Z,99030.53
2019-04-30T14:03:29.047Z,99027.47
2019-04-30T14:05:59.733Z,99026.11
2019-04-30T14:08:35.996Z,99031.83
2019-04-30T14:11:06.901Z,99026.56
2019-04-30T14:13:37.876Z,99035.95
2019-04-30T14:16:09.104Z,99036.36
2019-04-30T14:18:39.757Z,99032.69
2019-04-30T14:21:10.643Z,99032.23
2019-04-30T14:23:42.472Z,99035.31
2019-04-30T14:26:13.397Z,99032.89
2019-04-30T14:28:44.169Z,99030.61
2019-04-30T14:31:15.052Z,99037.78
2019-04-30T14:33:45.795Z,99034.98
2019-04-30T14:36:16.683Z,99032.19
2019-04-30T14:38:48.832Z,99029.60
2019-04-30T14:41:20.413Z,99035.35
2019-04-30T14:43:57.527Z,99024.61
2019-04-30T14:46:49.664Z,99029.90
2019-04-30T14:49:59.078Z,99025.78
2019-04-30T14:52:20.443Z,99030.25
2019-04-30T14:55:01.808Z,99022.75
2019-04-30T14:57:51.397Z,99024.84
2019-04-30T15:00:41.190Z,99027.23
2019-04-30T15:03:14.343Z,99025.16
2019-04-30T15:05:51.334Z,99028.38
2019-04-30T15:08:19.478Z,99022.61
2019-04-30T15:10:50.368Z,99022.52
2019-04-30T15:13:21.038Z,99014.65
2019-04-30T15:15:51.929Z,99021.70
2019-04-30T15:18:22.907Z,99017.80
2019-04-30T15:20:53.914Z,99011.84
2019-04-30T15:23:36.930Z,99015.52
2019-04-30T15:26:08.609Z,99010.41
2019-04-30T15:28:41.490Z,99014.34
2019-04-30T15:31:12.559Z,99008.88
2019-04-30T15:34:02.619Z,99009.53
2019-04-30T15:36:26.498Z,99011.56
2019-04-30T15:39:05.734Z,98997.08
2019-04-30T15:41:37.507Z,99009.70
2019-04-30T15:44:09.416Z,99010.57
2019-04-30T15:46:40.285Z,99011.06
2019-04-30T15:49:11.337Z,99008.27
2019-04-30T15:51:42.182Z,99008.19
2019-04-30T15:54:13.183Z,99006.93
2019-04-30T15:56:43.976Z,98999.93
2019-04-30T15:59:28.977Z,98998.17
2019-04-30T16:02:04.993Z,98993.86
2019-04-30T16:04:45.132Z,98996.64
2019-04-30T16:07:16.041Z,98995.19
2019-04-30T16:10:00.198Z,99000.15
2019-04-30T16:12:43.138Z,99007.65
2019-04-30T16:15:14.080Z,98999.41
2019-04-30T16:20:49.730Z,98999.58
2019-04-30T16:23:20.103Z,99000.70
2019-04-30T16:25:50.883Z,98998.35
2019-04-30T16:28:21.963Z,98998.77
2019-04-30T16:30:53.092Z,98989.55
2019-04-30T16:33:23.975Z,98996.31
2019-04-30T16:35:55.004Z,98990.48
2019-04-30T16:38:25.683Z,98991.73
2019-04-30T16:40:58.094Z,98991.19
2019-04-30T16:43:29.782Z,98995.21
2019-04-30T16:46:00.655Z,98996.90
2019-04-30T16:48:31.738Z,98996.93
2019-04-30T16:51:02.737Z,98997.25
2019-04-30T16:53:33.667Z,98993.67
2019-04-30T16:56:04.523Z,99001.14
2019-04-30T16:58:54.369Z,98996.09
2019-04-30T17:01:25.720Z,98997.13
2019-04-30T17:04:00.882Z,98992.89
2019-04-30T17:06:34.484Z,98994.16
2019-04-30T17:09:13.402Z,98996.63
2019-04-30T17:12:03.033Z,98994.41
2019-04-30T17:14:35.325Z,99000.64
2019-04-30T17:17:06.918Z,98997.16
2019-04-30T17:19:39.347Z,98994.35
2019-04-30T17:22:10.448Z,98998.56
2019-04-30T17:24:41.203Z,98998.20
2019-04-30T17:27:19.447Z,99007.45
2019-04-30T17:29:44.775Z,99002.09
2019-04-30T17:32:15.711Z,99001.56
2019-04-30T17:34:48.827Z,99001.91
2019-04-30T17:37:19.324Z,99003.19
2019-04-30T17:39:52.879Z,98999.98
2019-04-30T17:42:22.762Z,99007.80
2019-04-30T17:44:58.651Z,99001.96
2019-04-30T17:47:26.479Z,99000.13
2019-04-30T17:49:58.914Z,99007.78
2019-04-30T17:52:30.417Z,98997.42
2019-04-30T17:55:01.284Z,98994.69
2019-04-30T17:57:34.573Z,98995.91
2019-04-30T18:00:16.906Z,98996.06
2019-04-30T18:02:39.419Z,98991.00
2019-04-30T18:05:11.412Z,98994.64
2019-04-30T18:07:44.239Z,98999.19
2019-04-30T18:10:19.524Z,98996.09
2019-04-30T18:12:50.814Z,99005.48
2019-04-30T18:15:25.090Z,98998.28
2019-04-30T18:18:10.183Z,99009.59
2019-04-30T18:20:49.057Z,99003.19
2019-04-30T18:23:32.546Z,99013.45
2019-04-30T18:26:12.499Z,99009.23
2019-04-30T18:28:43.774Z,99011.55
2019-04-30T18:31:14.690Z,99013.95
2019-04-30T18:33:46.621Z,99013.38
2019-04-30T18:36:17.234Z,99010.78
2019-04-30T18:38:51.362Z,99019.92
2019-04-30T18:41:22.838Z,99019.09
2019-04-30T18:43:53.818Z,99019.64
2019-04-30T18:46:29.211Z,99019.08
2019-04-30T18:49:02.943Z,99025.64
2019-04-30T18:51:42.087Z,99021.91
2019-04-30T18:54:11.914Z,99027.27
2019-04-30T18:56:42.976Z,99025.66
2019-04-30T18:59:16.500Z,99033.67
2019-04-30T19:01:48.643Z,99025.47
2019-04-30T19:04:25.077Z,99028.56
2019-04-30T19:07:02.639Z,99031.90
2019-04-30T19:09:55.319Z,99031.22
2019-04-30T19:12:36.253Z,99025.19
2019-04-30T19:15:48.544Z,99033.42
2019-04-30T19:18:24.298Z,99031.00
2019-04-30T19:20:56.098Z,99034.22
2019-04-30T19:23:29.125Z,99032.63
2019-04-30T19:26:05.964Z,99025.58
2019-04-30T19:28:38.560Z,99031.61
2019-04-30T19:31:14.661Z,99029.91
2019-04-30T19:33:50.914Z,99027.72
2019-04-30T19:36:34.923Z,99033.03
2019-04-30T19:39:01.928Z,99030.98
2019-04-30T19:41:35.157Z,99026.19
2019-04-30T19:44:08.175Z,99032.47
2019-04-30T19:46:44.627Z,99030.56
2019-04-30T19:49:19.237Z,99030.09
2019-04-30T19:52:08.586Z,99026.75
2019-04-30T19:54:39.276Z,99030.66
2019-04-30T19:57:13.172Z,99030.66
2019-04-30T19:59:49.183Z,99027.78
2019-04-30T20:02:23.689Z,99022.92
2019-04-30T20:05:03.104Z,99026.59
2019-04-30T20:07:35.612Z,99023.94
2019-04-30T20:10:09.393Z,99023.98
2019-04-30T20:12:49.748Z,99023.83
2019-04-30T20:15:24.595Z,99028.47
2019-04-30T20:17:58.332Z,99023.98
2019-04-30T20:20:34.409Z,99023.93
2019-04-30T20:23:14.313Z,99029.92
2019-04-30T20:25:51.595Z,99029.63
2019-04-30T20:28:39.114Z,99034.17
2019-04-30T20:31:11.550Z,99029.30
2019-04-30T20:33:43.928Z,99030.77
2019-04-30T20:36:15.929Z,99033.95
2019-04-30T20:39:10.786Z,99030.49
2019-04-30T20:41:56.258Z,99024.40
2019-04-30T20:44:32.329Z,99023.41
2019-04-30T20:47:04.721Z,99016.03
2019-04-30T20:49:36.083Z,99019.52
2019-04-30T20:52:07.534Z,99018.44
2019-04-30T20:54:41.100Z,99019.77
2019-04-30T20:57:21.463Z,99012.20
2019-04-30T20:59:53.845Z,99014.23
2019-04-30T21:02:26.003Z,99019.04
2019-04-30T21:05:00.489Z,99014.91
2019-04-30T21:07:38.308Z,99022.59
2019-04-30T21:10:10.146Z,99022.91
2019-04-30T21:12:44.633Z,99024.13
2019-04-30T21:15:19.545Z,99030.44
2019-04-30T21:17:52.785Z,99020.24
2019-04-30T21:20:35.364Z,99017.66
2019-04-30T21:23:06.263Z,99022.74
2019-04-30T21:25:38.722Z,99022.61
2019-04-30T21:28:09.840Z,99025.77
2019-04-30T21:30:40.584Z,99014.88
2019-04-30T21:33:19.335Z,99018.76
2019-04-30T21:35:54.193Z,99023.64
2019-04-30T21:38:29.226Z,99021.62
2019-04-30T21:41:01.217Z,99022.70
2019-04-30T21:43:33.080Z,99018.48
2019-04-30T21:46:04.668Z,99013.16
2019-04-30T21:48:35.123Z,99020.45
2019-04-30T21:51:09.229Z,99018.08
2019-04-30T21:53:40.660Z,99022.14
2019-04-30T21:56:11.534Z,99019.13
2019-04-30T21:58:42.244Z,99019.30
2019-04-30T22:01:19.082Z,99015.45
2019-04-30T22:03:49.789Z,99015.93
2019-04-30T22:06:20.858Z,99010.25
2019-04-30T22:08:51.752Z,99016.97
2019-04-30T22:11:22.838Z,99022.88
2019-04-30T22:13:53.802Z,99019.48
2019-04-30T22:16:24.722Z,99015.61
2019-04-30T22:18:55.644Z,99012.53
2019-04-30T22:21:28.326Z,99012.61
2019-04-30T22:23:59.223Z,99014.97
2019-04-30T22:26:30.038Z,99015.28
2019-04-30T22:29:01.168Z,99015.28
2019-04-30T22:31:32.008Z,99002.58
2019-04-30T22:34:02.838Z,99005.54
2019-04-30T22:36:41.465Z,99004.77
2019-04-30T22:39:30.133Z,99009.53
2019-04-30T22:42:30.639Z,99009.66
2019-04-30T22:45:03.743Z,99010.64
2019-04-30T22:47:34.578Z,99005.94
2019-04-30T22:50:07.008Z,98998.61
2019-04-30T22:52:37.893Z,98998.61
2019-04-30T22:55:08.987Z,98999.25
2019-04-30T22:57:39.692Z,98989.86
2019-04-30T23:00:14.590Z,98993.73
2019-04-30T23:02:55.864Z,98978.89
2019-04-30T23:05:26.905Z,98991.15
2019-04-30T23:07:57.695Z,98984.69
2019-04-30T23:10:28.576Z,98982.50
2019-04-30T23:12:59.597Z,98985.48
2019-04-30T23:15:30.730Z,98979.22
2019-04-30T23:18:01.558Z,98986.66
2019-04-30T23:20:32.481Z,98986.10
2019-04-30T23:23:03.564Z,98978.03
2019-04-30T23:25:34.452Z,98980.16
2019-04-30T23:28:05.713Z,98976.87
2019-04-30T23:30:36.638Z,98974.86
2019-04-30T23:33:07.412Z,98974.94
2019-04-30T23:35:38.343Z,98970.20
2019-04-30T23:38:09.112Z,98969.25
2019-04-30T23:40:51.793Z,98964.78
2019-04-30T23:43:22.764Z,98961.30
2019-04-30T23:45:53.718Z,98951.95
2019-04-30T23:48:24.670Z,98954.22
2019-04-30T23:50:55.614Z,98951.59
2019-04-30T23:53:26.531Z,98936.99
2019-04-30T23:55:57.474Z,98930.86
2019-04-30T23:58:28.382Z,98940.29
